Time;durP1;ratioP1;P1;durP2;ratioP2;P2;SDS_P1;SDS_P2;PMS_P1;PMS_P2;Temp;Humidity;BMP_temperature;BMP_pressure;BME280_temperature;BME280_humidity;BME280_pressure;Samples;Min_cycle;Max_cycle;Signal;HPM_P1;HPM_P2
2022/04/18 00:00:26;;;;;;;11.65;4.93;;;9.90;94.40;;;;;;5029774;28;20100;-60
2022/04/18 00:02:53;;;;;;;8.30;4.63;;;9.80;93.80;;;;;;5028276;28;20484;-58
2022/04/18 00:05:19;;;;;;;15.32;5.40;;;9.90;93.80;;;;;;5009105;28;20064;-59
2022/04/18 00:07:46;;;;;;;8.25;4.75;;;9.90;93.80;;;;;;5017133;28;20076;-57
2022/04/18 00:10:13;;;;;;;9.38;5.07;;;9.90;93.70;;;;;;5027992;28;20453;-58
2022/04/18 00:12:40;;;;;;;9.85;5.10;;;9.90;93.90;;;;;;5028097;28;20076;-59
2022/04/18 00:15:07;;;;;;;8.45;4.97;;;9.90;93.90;;;;;;5028219;28;20081;-59
2022/04/18 00:17:34;;;;;;;8.77;5.07;;;10.00;93.90;;;;;;5060897;28;20045;-58
2022/04/18 00:20:01;;;;;;;8.10;5.18;;;10.00;93.80;;;;;;5030151;28;20119;-57
2022/04/18 00:22:27;;;;;;;7.47;4.10;;;10.00;93.80;;;;;;5029833;28;20049;-58
2022/04/18 00:24:55;;;;;;;8.13;5.00;;;10.00;93.80;;;;;;5025553;28;20092;-58
2022/04/18 00:27:21;;;;;;;9.00;5.07;;;10.00;93.90;;;;;;5029291;28;20245;-55
2022/04/18 00:29:49;;;;;;;8.45;4.97;;;9.90;94.30;;;;;;5030420;28;20084;-59
2022/04/18 00:32:16;;;;;;;15.70;5.43;;;9.80;94.00;;;;;;5030712;28;20045;-58
2022/04/18 00:34:43;;;;;;;8.30;5.18;;;9.90;94.00;;;;;;5027200;28;20080;-58
2022/04/18 00:37:16;;;;;;;7.57;4.90;;;10.00;93.90;;;;;;5033405;28;20473;-59
2022/04/18 00:39:43;;;;;;;7.60;4.60;;;10.00;93.90;;;;;;5032809;28;20100;-58
2022/04/18 00:42:09;;;;;;;13.18;7.60;;;10.00;93.80;;;;;;5033928;28;20155;-57
2022/04/18 00:44:36;;;;;;;9.98;5.35;;;10.00;93.90;;;;;;5024145;28;20089;-58
2022/04/18 00:47:03;;;;;;;11.15;6.03;;;10.00;93.90;;;;;;5033944;28;20042;-59
2022/04/18 00:49:30;;;;;;;10.23;5.78;;;10.00;94.00;;;;;;5033790;28;20089;-57
2022/04/18 00:51:57;;;;;;;10.32;5.45;;;10.00;93.90;;;;;;5033694;28;20093;-58
2022/04/18 00:54:24;;;;;;;10.05;6.15;;;10.00;93.90;;;;;;5022920;28;20164;-58
2022/04/18 00:56:53;;;;;;;11.32;6.78;;;10.10;93.90;;;;;;5012493;28;20512;-57
2022/04/18 00:59:21;;;;;;;9.18;4.97;;;10.20;93.90;;;;;;5025283;28;20084;-58
2022/04/18 01:01:47;;;;;;;10.60;5.60;;;10.20;93.80;;;;;;5032038;28;20501;-58
2022/04/18 01:04:14;;;;;;;13.95;6.30;;;10.30;93.80;;;;;;5015797;28;20507;-58
2022/04/18 01:06:41;;;;;;;9.55;5.55;;;10.30;93.80;;;;;;5033004;28;20137;-57
2022/04/18 01:09:08;;;;;;;11.43;6.03;;;10.30;93.90;;;;;;5031892;28;20088;-58
2022/04/18 01:11:34;;;;;;;10.60;5.70;;;10.40;93.90;;;;;;5023633;28;20089;-58
2022/04/18 01:14:02;;;;;;;11.65;6.03;;;10.40;93.80;;;;;;5027230;28;20505;-58
2022/04/18 01:16:29;;;;;;;13.15;6.35;;;10.50;93.80;;;;;;5025471;28;20084;-59
2022/04/18 01:18:57;;;;;;;11.52;6.45;;;10.60;93.70;;;;;;4683876;28;10000327;-59
2022/04/18 01:21:24;;;;;;;13.25;6.10;;;10.70;93.80;;;;;;5029430;28;20096;-57
2022/04/18 01:23:50;;;;;;;10.82;5.75;;;10.70;94.00;;;;;;5028464;28;20117;-57
2022/04/18 01:29:02;;;;;;;9.57;5.32;;;10.70;93.60;;;;;;5031866;28;20116;-58
2022/04/18 01:31:34;;;;;;;13.25;6.30;;;10.80;93.60;;;;;;5031633;28;20465;-58
2022/04/18 01:34:02;;;;;;;10.20;6.05;;;10.70;93.80;;;;;;5023594;28;20465;-57
2022/04/18 01:36:29;;;;;;;10.10;5.72;;;10.60;93.60;;;;;;5032133;28;20072;-59
2022/04/18 01:38:56;;;;;;;13.05;6.95;;;10.50;94.00;;;;;;5033404;28;20053;-58
2022/04/18 01:41:22;;;;;;;12.15;6.45;;;10.50;94.00;;;;;;5031683;28;20516;-58
2022/04/18 01:43:49;;;;;;;12.35;6.00;;;10.50;94.10;;;;;;5022641;28;20038;-59
2022/04/18 01:46:16;;;;;;;12.98;6.25;;;10.40;94.20;;;;;;5028186;28;20073;-58
2022/04/18 01:48:43;;;;;;;9.68;5.80;;;10.40;94.30;;;;;;5031166;28;20508;-59
2022/04/18 01:51:10;;;;;;;9.75;5.68;;;10.40;94.50;;;;;;5031203;28;20132;-59
2022/04/18 01:53:37;;;;;;;10.77;6.10;;;10.40;94.50;;;;;;5025896;28;20088;-57
2022/04/18 01:56:04;;;;;;;11.05;6.38;;;10.30;94.50;;;;;;5023463;28;20464;-58
2022/04/18 01:58:30;;;;;;;10.45;6.22;;;10.30;94.60;;;;;;5032968;28;20045;-59
2022/04/18 02:00:57;;;;;;;10.48;6.05;;;10.20;94.80;;;;;;5032377;28;20081;-58
2022/04/18 02:03:24;;;;;;;13.15;6.15;;;10.30;95.00;;;;;;5032510;28;20041;-57
2022/04/18 02:05:55;;;;;;;10.82;6.03;;;10.30;95.20;;;;;;5064119;28;20041;-57
2022/04/18 02:08:23;;;;;;;11.80;5.97;;;10.20;95.30;;;;;;5024669;28;20049;-57
2022/04/18 02:10:50;;;;;;;11.20;6.25;;;10.20;95.70;;;;;;5031943;28;20393;-58
2022/04/18 02:13:16;;;;;;;12.75;6.38;;;10.20;95.60;;;;;;5027694;28;20493;-59
2022/04/18 02:15:44;;;;;;;10.93;6.85;;;10.20;95.50;;;;;;5014574;28;20060;-57
2022/04/18 02:18:11;;;;;;;18.45;7.68;;;10.20;95.80;;;;;;5032840;28;20101;-58
2022/04/18 02:20:37;;;;;;;13.68;7.90;;;10.20;95.90;;;;;;5032069;28;20187;-58
2022/04/18 02:23:04;;;;;;;14.52;7.47;;;10.20;95.80;;;;;;5026434;28;20497;-58
2022/04/18 02:25:31;;;;;;;10.77;7.05;;;10.20;96.10;;;;;;5012317;28;20552;-58
2022/04/18 02:27:58;;;;;;;15.68;7.10;;;10.00;96.50;;;;;;5030048;28;20104;-59
2022/04/18 02:30:25;;;;;;;12.60;7.50;;;10.00;96.50;;;;;;5031225;28;20295;-58
2022/04/18 02:32:52;;;;;;;13.02;7.53;;;10.10;96.50;;;;;;5031600;28;20053;-58
2022/04/18 02:35:27;;;;;;;17.20;7.57;;;10.10;96.80;;;;;;5032396;28;20176;-59
2022/04/18 02:37:54;;;;;;;12.82;7.75;;;10.10;97.80;;;;;;5031459;28;20087;-59
2022/04/18 02:40:21;;;;;;;12.25;6.80;;;10.00;97.20;;;;;;5032107;28;20045;-58
2022/04/18 02:42:48;;;;;;;13.10;7.85;;;10.00;97.10;;;;;;5031396;28;20042;-57
2022/04/18 02:45:18;;;;;;;28.73;9.10;;;10.00;97.20;;;;;;5025846;28;20045;-57
2022/04/18 02:47:46;;;;;;;13.95;7.82;;;10.00;97.40;;;;;;5031937;28;20045;-58
2022/04/18 02:50:13;;;;;;;13.93;7.97;;;10.10;97.40;;;;;;5032370;28;20053;-57
2022/04/18 02:52:40;;;;;;;13.63;7.65;;;10.10;97.60;;;;;;5031158;28;20087;-58
2022/04/18 02:55:07;;;;;;;18.23;8.20;;;10.10;97.60;;;;;;5025887;28;20453;-58
2022/04/18 02:57:34;;;;;;;17.90;9.55;;;10.10;97.70;;;;;;5030815;28;20045;-58
2022/04/18 03:00:01;;;;;;;13.73;8.00;;;10.10;97.90;;;;;;5031084;28;20069;-57
2022/04/18 03:02:27;;;;;;;14.38;8.73;;;10.10;98.00;;;;;;5031364;28;20049;-56
2022/04/18 03:04:57;;;;;;;14.88;8.85;;;10.00;98.10;;;;;;5023238;28;20045;-57
2022/04/18 03:07:27;;;;;;;15.98;8.75;;;10.00;98.40;;;;;;5019851;28;20085;-58
2022/04/18 03:09:53;;;;;;;15.73;9.18;;;10.00;98.40;;;;;;5025922;28;20127;-58
2022/04/18 03:12:20;;;;;;;16.85;8.57;;;9.90;98.60;;;;;;5029231;28;20136;-57
2022/04/18 03:14:47;;;;;;;16.02;8.82;;;9.90;98.80;;;;;;5016982;28;20037;-57
2022/04/18 03:17:14;;;;;;;11.48;7.53;;;9.90;99.00;;;;;;5031110;28;20076;-57
2022/04/18 03:19:41;;;;;;;19.58;10.65;;;9.90;99.10;;;;;;5031095;28;20132;-58
2022/04/18 03:22:08;;;;;;;19.15;9.50;;;9.80;99.20;;;;;;5029846;28;20137;-57
2022/04/18 03:24:35;;;;;;;16.40;10.10;;;9.90;99.20;;;;;;5013027;28;20588;-58
2022/04/18 03:27:02;;;;;;;20.92;9.55;;;9.80;99.20;;;;;;5030711;28;20516;-58
2022/04/18 03:29:29;;;;;;;18.35;9.65;;;9.90;99.30;;;;;;5031051;28;20389;-56
2022/04/18 03:31:56;;;;;;;22.23;9.95;;;9.80;99.40;;;;;;5030730;28;20103;-58
2022/04/18 03:34:23;;;;;;;14.48;8.68;;;9.70;99.50;;;;;;5031588;28;20057;-57
2022/04/18 03:39:51;;;;;;;19.27;10.50;;;9.70;99.80;;;;;;5021610;28;20150;-57
2022/04/18 03:42:19;;;;;;;19.00;10.00;;;9.60;99.90;;;;;;5028271;28;20088;-56
2022/04/18 03:44:47;;;;;;;17.92;10.20;;;9.60;99.90;;;;;;5025098;28;20046;-58
2022/04/18 03:47:14;;;;;;;19.50;10.57;;;9.60;99.90;;;;;;5030387;28;20081;-56
2022/04/18 03:49:41;;;;;;;19.48;10.80;;;9.60;99.90;;;;;;5029554;28;20037;-57
2022/04/18 03:52:08;;;;;;;19.38;10.48;;;9.60;99.90;;;;;;5030337;28;20045;-57
2022/04/18 03:54:35;;;;;;;18.65;10.75;;;9.60;99.90;;;;;;5025692;28;20046;-58
2022/04/18 03:57:02;;;;;;;24.85;13.00;;;9.60;99.90;;;;;;5030163;28;20072;-58
2022/04/18 03:59:29;;;;;;;19.35;11.10;;;9.60;99.90;;;;;;5030458;28;20056;-56
2022/04/18 04:01:56;;;;;;;21.05;12.10;;;9.50;99.90;;;;;;5028525;28;20072;-57
2022/04/18 04:04:23;;;;;;;19.23;11.05;;;9.50;99.90;;;;;;5027847;28;20424;-56
2022/04/18 04:06:50;;;;;;;25.83;13.02;;;9.50;99.90;;;;;;5031887;28;20045;-58
2022/04/18 04:09:16;;;;;;;21.73;12.23;;;9.50;99.90;;;;;;5020100;28;20160;-57
2022/04/18 04:11:43;;;;;;;25.30;13.43;;;9.40;99.90;;;;;;5033979;28;20049;-58
2022/04/18 04:14:10;;;;;;;20.25;11.85;;;9.40;99.90;;;;;;5026052;28;20133;-58
2022/04/18 04:16:40;;;;;;;24.15;13.90;;;9.50;99.90;;;;;;5031490;28;20046;-58
2022/04/18 04:19:07;;;;;;;24.73;13.00;;;9.50;99.90;;;;;;5034803;28;20049;-57
2022/04/18 04:21:35;;;;;;;25.98;13.07;;;9.50;99.90;;;;;;5034427;28;20084;-58
2022/04/18 04:24:02;;;;;;;23.98;12.93;;;9.40;99.90;;;;;;5033519;28;20049;-58
2022/04/18 04:26:29;;;;;;;23.73;12.57;;;9.40;99.90;;;;;;5032953;28;20512;-57
2022/04/18 04:28:55;;;;;;;19.73;11.65;;;9.40;99.90;;;;;;5034311;28;20497;-58
2022/04/18 04:31:22;;;;;;;26.60;12.95;;;9.40;99.90;;;;;;5034225;28;20091;-58
2022/04/18 04:33:49;;;;;;;23.85;13.27;;;9.40;99.90;;;;;;5028980;28;20054;-58
2022/04/18 04:36:17;;;;;;;22.67;12.93;;;9.40;99.90;;;;;;5024461;28;20488;-59
2022/04/18 04:38:44;;;;;;;20.40;11.75;;;9.30;99.90;;;;;;5034358;28;20081;-58
2022/04/18 04:41:11;;;;;;;24.38;12.02;;;9.30;99.90;;;;;;5033070;28;20045;-58
2022/04/18 04:43:42;;;;;;;24.73;12.43;;;9.20;99.90;;;;;;5030011;28;20081;-58
2022/04/18 04:46:09;;;;;;;22.23;13.40;;;9.20;99.90;;;;;;5021539;28;20050;-57
2022/04/18 04:48:36;;;;;;;27.08;12.88;;;9.10;99.90;;;;;;5033843;28;20459;-57
2022/04/18 04:51:03;;;;;;;21.73;12.65;;;9.10;99.90;;;;;;5034277;28;20100;-58
2022/04/18 04:53:30;;;;;;;21.38;13.40;;;9.10;99.90;;;;;;5031831;28;20068;-58
2022/04/18 04:55:56;;;;;;;20.92;12.38;;;9.00;99.90;;;;;;5015395;28;20054;-58
2022/04/18 04:58:23;;;;;;;19.70;11.75;;;9.00;99.90;;;;;;5030099;28;20443;-59
2022/04/18 05:00:50;;;;;;;25.13;14.23;;;9.00;99.90;;;;;;5032457;28;20088;-59
2022/04/18 05:03:17;;;;;;;21.73;12.63;;;9.00;99.90;;;;;;5033528;28;20080;-58
2022/04/18 05:05:44;;;;;;;24.35;13.52;;;8.90;99.90;;;;;;5012866;28;20548;-58
2022/04/18 05:08:10;;;;;;;23.92;12.90;;;8.80;99.90;;;;;;5030926;28;20088;-58
2022/04/18 05:10:37;;;;;;;25.13;14.05;;;8.80;99.90;;;;;;5033354;28;20124;-59
2022/04/18 05:13:04;;;;;;;25.10;14.13;;;8.70;99.90;;;;;;5032987;28;20085;-59
2022/04/18 05:15:32;;;;;;;27.95;13.60;;;8.70;99.90;;;;;;5032180;28;20103;-58
2022/04/18 05:18:00;;;;;;;26.23;13.30;;;8.70;99.90;;;;;;5030508;28;20107;-58
2022/04/18 05:20:27;;;;;;;25.17;13.52;;;8.70;99.90;;;;;;5033549;28;20049;-58
2022/04/18 05:22:55;;;;;;;22.60;12.85;;;8.70;99.90;;;;;;5033419;28;20084;-57
2022/04/18 05:25:22;;;;;;;27.80;15.60;;;8.70;99.90;;;;;;5031359;28;20484;-58
2022/04/18 05:27:49;;;;;;;25.80;13.50;;;8.70;99.90;;;;;;5032945;28;20072;-59
2022/04/18 05:30:16;;;;;;;23.88;12.98;;;8.70;99.90;;;;;;5032298;28;20084;-56
2022/04/18 05:32:43;;;;;;;22.08;12.70;;;8.70;99.90;;;;;;5033594;28;20083;-59
2022/04/18 05:35:10;;;;;;;30.00;13.50;;;8.80;99.90;;;;;;5023556;28;20100;-58
2022/04/18 05:37:37;;;;;;;24.50;14.05;;;8.80;99.90;;;;;;5017693;28;20492;-58
2022/04/18 05:40:04;;;;;;;22.38;13.75;;;8.80;99.90;;;;;;5032600;28;20077;-59
2022/04/18 05:42:31;;;;;;;25.77;14.38;;;8.90;99.90;;;;;;5014761;28;20518;-58
2022/04/18 05:44:57;;;;;;;25.33;12.95;;;9.00;99.90;;;;;;5021901;28;20045;-58
2022/04/18 05:47:24;;;;;;;28.02;14.30;;;9.10;99.90;;;;;;5032965;28;20081;-58
2022/04/18 05:49:51;;;;;;;25.80;14.57;;;9.10;99.90;;;;;;5032485;28;20102;-58
2022/04/18 05:52:18;;;;;;;24.27;14.50;;;9.20;99.90;;;;;;5032589;28;20096;-56
2022/04/18 05:54:44;;;;;;;33.85;14.95;;;9.20;99.90;;;;;;5028526;28;20127;-58
2022/04/18 05:57:11;;;;;;;26.33;13.95;;;9.20;99.90;;;;;;5030964;28;20067;-58
2022/04/18 05:59:38;;;;;;;22.65;13.40;;;9.20;99.90;;;;;;5032364;28;20190;-58
2022/04/18 06:02:05;;;;;;;30.77;14.82;;;9.30;99.90;;;;;;5032168;28;20131;-58
2022/04/18 06:04:32;;;;;;;24.92;13.45;;;9.40;99.90;;;;;;5031058;28;20088;-58
2022/04/18 06:06:58;;;;;;;32.15;14.50;;;9.50;99.90;;;;;;5032797;28;20073;-58
2022/04/18 06:09:25;;;;;;;26.38;13.30;;;9.60;99.90;;;;;;5032300;28;20073;-58
2022/04/18 06:11:52;;;;;;;25.88;14.45;;;9.70;99.90;;;;;;5032973;28;20508;-58
2022/04/18 06:14:19;;;;;;;29.58;15.63;;;9.80;99.90;;;;;;5031868;28;20527;-57
2022/04/18 06:16:46;;;;;;;26.30;13.45;;;9.90;99.90;;;;;;5032818;28;20046;-58
2022/04/18 06:19:13;;;;;;;26.77;14.32;;;10.00;99.90;;;;;;5030822;28;20045;-60
2022/04/18 06:21:40;;;;;;;22.15;13.35;;;10.10;99.90;;;;;;5032112;28;20076;-58
2022/04/18 06:24:06;;;;;;;25.33;13.38;;;10.10;99.90;;;;;;5031104;28;20136;-57
2022/04/18 06:26:33;;;;;;;26.67;14.43;;;10.20;99.90;;;;;;5031730;28;20084;-57
2022/04/18 06:29:00;;;;;;;27.70;14.75;;;10.20;99.90;;;;;;5030424;28;20474;-57
2022/04/18 06:31:27;;;;;;;24.63;13.30;;;10.30;99.90;;;;;;5030556;28;20092;-59
2022/04/18 06:33:54;;;;;;;23.00;13.27;;;10.40;99.90;;;;;;5031965;28;20148;-59
2022/04/18 06:36:20;;;;;;;30.27;12.93;;;10.40;99.90;;;;;;5031367;28;20088;-58
2022/04/18 06:38:47;;;;;;;25.65;12.77;;;10.50;99.90;;;;;;5031376;28;20053;-58
2022/04/18 06:41:14;;;;;;;21.00;12.40;;;10.50;99.90;;;;;;5031563;28;20045;-59
2022/04/18 06:43:41;;;;;;;20.85;11.38;;;10.50;99.90;;;;;;5031588;28;20092;-58
2022/04/18 06:46:08;;;;;;;22.60;9.20;;;10.50;99.90;;;;;;5025174;28;20073;-58
2022/04/18 06:48:35;;;;;;;16.73;9.75;;;10.50;99.90;;;;;;5030957;28;20116;-59
2022/04/18 06:51:01;;;;;;;24.00;10.75;;;10.50;99.90;;;;;;5031613;28;20444;-59
2022/04/18 06:53:28;;;;;;;23.00;11.25;;;10.70;99.90;;;;;;5030866;28;20516;-59
2022/04/18 06:58:40;;;;;;;18.70;10.13;;;10.70;99.90;;;;;;5032010;28;20087;-60
2022/04/18 07:01:07;;;;;;;16.95;10.32;;;10.80;99.90;;;;;;5014063;28;20115;-59
2022/04/18 07:03:34;;;;;;;18.05;9.65;;;10.90;99.90;;;;;;5029856;28;20094;-58
2022/04/18 07:06:01;;;;;;;21.20;9.65;;;10.90;99.90;;;;;;5013171;28;20404;-58
2022/04/18 07:08:28;;;;;;;22.33;10.18;;;10.90;99.90;;;;;;5027469;28;20087;-57
2022/04/18 07:10:55;;;;;;;21.50;10.52;;;10.90;99.90;;;;;;5030957;28;20087;-58
2022/04/18 07:13:22;;;;;;;15.60;9.45;;;11.00;99.90;;;;;;5029297;28;20085;-58
2022/04/18 07:15:49;;;;;;;18.35;9.10;;;11.10;99.90;;;;;;5017776;28;20455;-58
2022/04/18 07:18:15;;;;;;;17.90;9.02;;;11.10;99.90;;;;;;5029668;28;20131;-58
2022/04/18 07:20:42;;;;;;;16.70;8.52;;;11.10;99.90;;;;;;5029584;28;20061;-59
2022/04/18 07:23:11;;;;;;;16.00;8.75;;;11.10;99.90;;;;;;5030244;28;20338;-59
2022/04/18 07:25:38;;;;;;;18.35;9.93;;;11.20;99.90;;;;;;5023106;28;20042;-58
2022/04/18 07:28:05;;;;;;;18.05;8.20;;;11.20;99.90;;;;;;5026958;28;20053;-59
2022/04/18 07:30:32;;;;;;;20.20;9.40;;;11.20;99.90;;;;;;5022090;28;20070;-58
2022/04/18 07:32:59;;;;;;;17.88;9.38;;;11.10;99.90;;;;;;5023095;28;20072;-59
2022/04/18 07:35:26;;;;;;;17.65;9.50;;;11.20;99.90;;;;;;5024201;28;20088;-59
2022/04/18 07:40:38;;;;;;;17.15;9.50;;;11.30;99.90;;;;;;5020857;28;20046;-59
2022/04/18 07:43:09;;;;;;;17.45;9.32;;;11.30;99.90;;;;;;5028035;28;20516;-58
2022/04/18 07:45:37;;;;;;;15.15;8.68;;;11.40;99.90;;;;;;5030492;28;20402;-59
2022/04/18 07:48:05;;;;;;;20.60;8.40;;;11.50;99.90;;;;;;5030768;28;20045;-59
2022/04/18 07:53:17;;;;;;;16.23;7.60;;;11.60;99.90;;;;;;5030153;28;20076;-59
2022/04/18 07:55:44;;;;;;;22.70;7.55;;;11.60;99.90;;;;;;5019030;28;20055;-59
2022/04/18 07:58:11;;;;;;;14.90;7.55;;;11.70;99.90;;;;;;5028845;28;20485;-60
2022/04/18 08:00:38;;;;;;;15.75;8.02;;;11.80;99.90;;;;;;5023361;28;20042;-59
2022/04/18 08:03:04;;;;;;;13.25;6.07;;;11.80;99.90;;;;;;5027049;28;20056;-59
2022/04/18 08:05:31;;;;;;;14.38;6.72;;;11.80;99.90;;;;;;5024956;28;20045;-59
2022/04/18 08:07:58;;;;;;;10.50;6.22;;;11.90;99.90;;;;;;5026287;28;20057;-59
2022/04/18 08:10:25;;;;;;;15.20;6.95;;;12.00;99.90;;;;;;5026240;28;20129;-59
2022/04/18 08:12:52;;;;;;;17.48;6.93;;;12.20;99.90;;;;;;5026103;28;20109;-59
2022/04/18 08:15:19;;;;;;;11.40;6.38;;;12.20;99.90;;;;;;5028353;28;20049;-58
2022/04/18 08:17:45;;;;;;;13.93;6.43;;;12.20;99.90;;;;;;5022990;28;20585;-58
2022/04/18 08:20:12;;;;;;;11.65;5.90;;;12.20;99.90;;;;;;5032082;28;20080;-58
2022/04/18 08:22:39;;;;;;;18.90;6.50;;;12.30;99.90;;;;;;5021895;28;20042;-58
2022/04/18 08:25:06;;;;;;;13.18;5.50;;;12.20;99.90;;;;;;5028619;28;20049;-59
2022/04/18 08:27:33;;;;;;;9.07;4.28;;;12.20;99.90;;;;;;5024990;28;20493;-59
2022/04/18 08:30:00;;;;;;;8.38;4.82;;;12.30;99.90;;;;;;5028489;28;20057;-62
2022/04/18 08:32:27;;;;;;;11.25;5.55;;;12.40;99.90;;;;;;5023571;28;20041;-58
2022/04/18 08:34:55;;;;;;;12.65;5.80;;;12.40;99.90;;;;;;5025814;28;20137;-58
2022/04/18 08:37:22;;;;;;;15.38;6.30;;;12.50;99.90;;;;;;5021377;28;20101;-57
2022/04/18 08:39:49;;;;;;;10.00;5.72;;;12.60;99.90;;;;;;5023774;28;20068;-58
2022/04/18 08:42:16;;;;;;;14.95;5.80;;;12.60;99.90;;;;;;5027111;28;20080;-57
2022/04/18 08:44:43;;;;;;;9.70;5.75;;;12.70;99.90;;;;;;5055868;28;20132;-57
2022/04/18 08:52:43;;;;;;;10.52;5.18;;;12.70;99.90;;;;;;5027076;28;20053;-58
2022/04/18 08:52:44;;;;;;;11.10;4.22;;;12.90;99.90;;;;;;5012090;28;20177;-60
2022/04/18 08:55:11;;;;;;;9.48;4.65;;;13.00;99.90;;;;;;5023561;28;20084;-58
2022/04/18 08:57:38;;;;;;;8.05;4.30;;;13.00;99.90;;;;;;5031252;28;20045;-59
2022/04/18 09:00:06;;;;;;;8.45;4.40;;;13.10;99.00;;;;;;5031252;28;20483;-58
2022/04/18 09:02:33;;;;;;;10.68;4.88;;;13.20;99.50;;;;;;5025958;28;20086;-59
2022/04/18 09:05:00;;;;;;;5.85;3.58;;;13.20;99.40;;;;;;5027684;28;20050;-58
2022/04/18 09:07:27;;;;;;;17.35;4.32;;;13.10;98.90;;;;;;5029488;28;20087;-58
2022/04/18 09:09:55;;;;;;;8.15;5.28;;;13.10;99.00;;;;;;5029847;28;20072;-57
2022/04/18 09:12:23;;;;;;;8.35;3.70;;;13.10;99.00;;;;;;5022736;28;20129;-59
2022/04/18 09:14:55;;;;;;;9.40;4.07;;;13.20;99.30;;;;;;5024362;28;20049;-60
2022/04/18 09:17:32;;;;;;;9.85;4.22;;;13.20;99.10;;;;;;5028261;28;20111;-58
2022/04/18 09:20:09;;;;;;;9.52;3.90;;;13.30;99.00;;;;;;5030174;28;20496;-59
2022/04/18 09:22:43;;;;;;;10.20;3.08;;;13.30;97.50;;;;;;5027241;28;20137;-58
2022/04/18 09:25:17;;;;;;;;;;;13.30;97.10;;;;;;5028170;28;20129;-59
2022/04/18 09:27:57;;;;;;;9.47;3.17;;;13.50;96.50;;;;;;5022097;28;19926;-57
2022/04/18 09:30:25;;;;;;;10.68;3.47;;;13.40;97.80;;;;;;5012657;28;20041;-58
2022/04/18 09:32:56;;;;;;;10.15;3.45;;;13.50;97.50;;;;;;5008524;28;20049;-59
2022/04/18 09:35:24;;;;;;;7.82;3.30;;;13.60;97.80;;;;;;5026836;28;20053;-58
2022/04/18 09:37:52;;;;;;;8.43;3.10;;;13.70;97.80;;;;;;5024927;28;20718;-59
2022/04/18 09:40:23;;;;;;;5.35;2.78;;;14.00;97.70;;;;;;5024295;28;20124;-59
2022/04/18 09:42:53;;;;;;;9.52;2.97;;;13.90;96.70;;;;;;5027057;28;20107;-59
2022/04/18 09:45:20;;;;;;;8.85;2.88;;;14.10;96.70;;;;;;5025492;28;20160;-59
2022/04/18 09:47:58;;;;;;;7.38;2.30;;;14.20;96.80;;;;;;4681689;28;10000037;-60
2022/04/18 09:53:27;;;;;;;6.32;2.28;;;14.20;94.50;;;;;;5024568;28;20091;-59
2022/04/18 09:55:54;;;;;;;7.65;2.30;;;14.20;93.20;;;;;;5026258;28;20069;-58
2022/04/18 09:58:21;;;;;;;8.77;1.75;;;14.50;94.30;;;;;;5031137;28;20080;-58
2022/04/18 10:01:08;;;;;;;5.22;1.90;;;14.50;94.20;;;;;;5030570;28;20049;-58
2022/04/18 10:03:36;;;;;;;4.88;2.03;;;14.40;94.60;;;;;;5029565;28;20122;-59
2022/04/18 10:06:03;;;;;;;6.18;2.08;;;14.40;93.10;;;;;;5029826;28;20056;-58
2022/04/18 10:08:30;;;;;;;5.90;1.88;;;14.50;94.70;;;;;;5030940;28;20848;-59
2022/04/18 10:10:58;;;;;;;8.07;1.90;;;14.70;94.50;;;;;;5031177;28;20091;-58
2022/04/18 10:13:26;;;;;;;5.55;2.00;;;14.80;94.40;;;;;;5029210;28;20087;-59
2022/04/18 10:15:53;;;;;;;4.47;2.03;;;15.10;94.30;;;;;;5031243;28;20073;-59
2022/04/18 10:18:20;;;;;;;8.88;3.65;;;15.30;94.10;;;;;;5029768;28;20132;-59
2022/04/18 10:21:12;;;;;;;5.10;1.88;;;15.40;94.10;;;;;;5029724;28;20072;-60
2022/04/18 10:23:57;;;;;;;3.58;1.90;;;15.40;91.70;;;;;;5028977;28;20056;-59
2022/04/18 10:27:15;;;;;;;10.93;3.00;;;15.30;91.60;;;;;;5030873;28;20045;-59
2022/04/18 10:29:50;;;;;;;7.00;2.75;;;15.30;90.20;;;;;;4979000;28;20573;-59
2022/04/18 10:32:20;;;;;;;7.85;3.13;;;15.10;91.40;;;;;;5009362;28;20118;-60
2022/04/18 10:34:51;;;;;;;4.07;1.65;;;15.10;92.40;;;;;;5029770;28;20155;-59
2022/04/18 10:37:22;;;;;;;3.92;1.85;;;15.20;91.00;;;;;;5015573;28;20095;-59
2022/04/18 10:40:07;;;;;;;5.72;2.20;;;15.20;91.70;;;;;;5015329;28;20077;-59
2022/04/18 10:42:35;;;;;;;5.38;1.40;;;15.20;90.80;;;;;;5030302;28;20478;-59
2022/04/18 10:45:02;;;;;;;6.60;1.67;;;15.30;92.50;;;;;;5029648;28;20081;-60
2022/04/18 10:48:00;;;;;;;6.88;1.40;;;15.30;92.40;;;;;;5030122;28;20045;-60
2022/04/18 10:50:36;;;;;;;4.68;1.42;;;15.10;85.60;;;;;;5029666;28;20099;-59
2022/04/18 10:53:17;;;;;;;5.32;2.10;;;15.00;89.30;;;;;;5029298;28;20045;-59
2022/04/18 10:55:55;;;;;;;4.57;2.28;;;14.90;89.90;;;;;;5028801;28;20049;-58
2022/04/18 10:58:23;;;;;;;10.50;2.30;;;15.10;90.70;;;;;;5022052;28;21283;-59
2022/04/18 11:00:55;;;;;;;3.50;1.60;;;15.10;91.10;;;;;;5028256;28;20076;-59
2022/04/18 11:03:46;;;;;;;6.30;1.88;;;15.20;90.70;;;;;;5027177;28;20044;-59
2022/04/18 11:06:16;;;;;;;9.68;1.90;;;15.10;90.30;;;;;;5013660;28;20181;-59
2022/04/18 11:09:07;;;;;;;4.38;1.35;;;15.00;90.10;;;;;;5014541;28;20091;-59
2022/04/18 11:11:42;;;;;;;8.00;1.30;;;15.10;87.70;;;;;;5019243;28;20485;-57
2022/04/18 11:14:21;;;;;;;5.80;1.70;;;15.10;86.60;;;;;;4667891;28;10000621;-58
2022/04/18 11:16:47;;;;;;;6.78;1.17;;;15.10;86.30;;;;;;5016635;28;20042;-59
2022/04/18 11:19:14;;;;;;;3.90;1.27;;;15.20;89.70;;;;;;5012621;28;20045;-58
2022/04/18 11:24:45;;;;;;;6.13;1.10;;;15.30;85.90;;;;;;5022909;28;20076;-59
2022/04/18 11:27:16;;;;;;;5.25;1.27;;;15.40;84.20;;;;;;5024925;28;20064;-60
2022/04/18 11:29:44;;;;;;;6.35;1.83;;;15.50;89.40;;;;;;5008318;28;20065;-59
2022/04/18 11:32:15;;;;;;;6.30;1.38;;;15.80;88.00;;;;;;5023085;28;20048;-60
2022/04/18 11:34:47;;;;;;;2.83;1.30;;;15.90;86.10;;;;;;5017861;28;20053;-59
2022/04/18 11:37:28;;;;;;;11.87;1.23;;;16.10;86.00;;;;;;5022447;28;20056;-58
2022/04/18 11:39:56;;;;;;;2.95;1.40;;;16.00;76.50;;;;;;5024143;28;20049;-59
2022/04/18 11:42:24;;;;;;;6.28;1.65;;;15.90;75.50;;;;;;5026452;28;20124;-58
2022/04/18 11:44:55;;;;;;;4.82;1.05;;;16.00;80.80;;;;;;5026546;28;20149;-58
2022/04/18 11:47:29;;;;;;;3.30;1.20;;;16.00;81.40;;;;;;5025523;28;20136;-58
2022/04/18 11:50:03;;;;;;;2.63;0.70;;;16.20;81.00;;;;;;5024857;28;20057;-59
2022/04/18 11:52:35;;;;;;;4.80;1.45;;;16.20;82.60;;;;;;5023500;28;20553;-59
2022/04/18 11:55:17;;;;;;;5.10;1.58;;;16.30;74.80;;;;;;5025687;28;20073;-59
2022/04/18 11:57:45;;;;;;;3.38;1.35;;;16.30;75.00;;;;;;5020252;28;20072;-58
2022/04/18 12:00:14;;;;;;;4.78;1.38;;;16.40;81.10;;;;;;5025361;28;20073;-59
2022/04/18 12:08:13;;;;;;;2.90;0.85;;;16.80;74.90;;;;;;5027640;28;20049;-60
2022/04/18 12:10:44;;;;;;;6.55;1.17;;;16.90;72.60;;;;;;5027253;28;20481;-59
2022/04/18 12:13:13;;;;;;;3.17;1.10;;;16.80;75.20;;;;;;5026992;28;20194;-59
2022/04/18 12:15:41;;;;;;;2.60;1.25;;;16.90;74.70;;;;;;5027018;28;20140;-59
2022/04/18 12:18:17;;;;;;;7.38;1.27;;;17.10;72.60;;;;;;5024597;28;20145;-60
2022/04/18 12:20:49;;;;;;;8.00;1.00;;;16.90;67.90;;;;;;5009149;28;20115;-60
2022/04/18 12:23:23;;;;;;;3.70;0.95;;;17.00;66.50;;;;;;5026352;28;20155;-58
2022/04/18 12:25:55;;;;;;;3.28;1.45;;;17.00;68.70;;;;;;5031443;28;20049;-60
2022/04/18 12:28:26;;;;;;;4.60;1.45;;;17.10;64.00;;;;;;5030610;28;20049;-58
2022/04/18 12:30:53;;;;;;;7.13;1.58;;;17.20;66.90;;;;;;5016818;28;20492;-58
2022/04/18 12:33:22;;;;;;;2.90;1.00;;;17.40;72.00;;;;;;5033974;28;20041;-59
2022/04/18 12:35:56;;;;;;;4.82;1.30;;;17.50;68.70;;;;;;5033387;28;20081;-60
2022/04/18 12:38:36;;;;;;;8.05;1.10;;;17.50;69.90;;;;;;5033271;28;20045;-59
2022/04/18 12:41:03;;;;;;;4.25;1.13;;;17.50;58.30;;;;;;5034378;28;20092;-59
2022/04/18 12:43:37;;;;;;;3.97;1.45;;;17.40;68.80;;;;;;5033477;28;20054;-59
2022/04/18 12:46:10;;;;;;;4.07;1.35;;;17.50;66.30;;;;;;5032946;28;20057;-59
2022/04/18 12:48:38;;;;;;;5.68;1.08;;;17.50;55.40;;;;;;5033618;28;20049;-58
2022/04/18 12:51:06;;;;;;;3.50;1.35;;;17.40;65.30;;;;;;5033541;28;20073;-59
2022/04/18 12:53:53;;;;;;;1.98;1.08;;;17.30;64.30;;;;;;5032679;28;20492;-58
2022/04/18 12:56:21;;;;;;;3.10;1.25;;;17.50;60.50;;;;;;5018212;28;20041;-59
2022/04/18 12:58:49;;;;;;;6.97;1.15;;;17.50;65.80;;;;;;5032843;28;20099;-59
2022/04/18 13:01:35;;;;;;;5.38;1.67;;;17.60;63.80;;;;;;5034335;28;20053;-59
2022/04/18 13:04:03;;;;;;;1.75;1.10;;;17.70;57.50;;;;;;5032865;28;20041;-59
2022/04/18 13:06:34;;;;;;;6.63;1.80;;;17.90;63.30;;;;;;5026681;28;20129;-58
2022/04/18 13:09:08;;;;;;;3.47;1.23;;;17.70;55.90;;;;;;5029617;28;20559;-59
2022/04/18 13:11:38;;;;;;;6.03;1.10;;;17.50;55.40;;;;;;5030153;28;20057;-58
2022/04/18 13:14:05;;;;;;;3.35;1.25;;;17.50;59.30;;;;;;5033362;28;20056;-60
2022/04/18 13:16:32;;;;;;;4.38;1.20;;;17.50;61.10;;;;;;5030590;28;20073;-59